Time;durP1;ratioP1;P1;durP2;ratioP2;P2;SDS_P1;SDS_P2;PMS_P1;PMS_P2;Temp;Humidity;BMP_temperature;BMP_pressure;BME280_temperature;BME280_humidity;BME280_pressure;Samples;Min_cycle;Max_cycle;Signal;HPM_P1;HPM_P2
2021/07/14 00:03:05;;;;;;;3.10;2.80;;;13.80;99.90;;;;;;5123557;27;20529;-70
2021/07/14 00:05:33;;;;;;;3.40;2.43;;;13.80;99.90;;;;;;5127226;28;20793;-69
2021/07/14 00:08:00;;;;;;;3.30;2.83;;;13.80;99.90;;;;;;5126812;28;20958;-70
2021/07/14 00:10:29;;;;;;;4.50;3.47;;;13.80;99.90;;;;;;5126794;28;20946;-70
2021/07/14 00:13:01;;;;;;;2.93;2.60;;;13.80;99.90;;;;;;5126923;28;20500;-69
2021/07/14 00:23:48;;;;;;;4.67;2.93;;;13.90;99.90;;;;;;5085984;28;20540;-69
2021/07/14 00:26:15;;;;;;;3.20;2.90;;;13.90;99.90;;;;;;5085969;28;20898;-69
2021/07/14 00:28:47;;;;;;;3.20;2.90;;;14.00;99.90;;;;;;5085927;28;20511;-69
2021/07/14 00:31:15;;;;;;;3.17;2.97;;;14.00;99.90;;;;;;5085578;28;20493;-69
2021/07/14 00:33:44;;;;;;;3.30;3.00;;;14.00;99.90;;;;;;5085874;28;20528;-69
2021/07/14 00:36:11;;;;;;;3.20;2.90;;;14.00;99.90;;;;;;5086054;28;20476;-69
2021/07/14 00:38:38;;;;;;;4.33;3.00;;;14.00;99.90;;;;;;5085773;28;20461;-70
2021/07/14 00:41:06;;;;;;;4.73;2.47;;;14.00;99.90;;;;;;5084975;28;20519;-69
2021/07/14 00:43:33;;;;;;;3.60;3.30;;;14.00;99.90;;;;;;5085503;28;20496;-68
2021/07/14 00:46:08;;;;;;;4.93;3.10;;;14.00;99.90;;;;;;5086096;28;20458;-69
2021/07/14 00:48:36;;;;;;;3.93;3.23;;;14.00;99.90;;;;;;5085702;28;20457;-68
2021/07/14 00:51:04;;;;;;;3.77;3.30;;;13.90;99.90;;;;;;5085371;28;20461;-69
2021/07/14 00:53:30;;;;;;;3.00;2.70;;;14.00;99.90;;;;;;5085481;28;20472;-69
2021/07/14 00:55:57;;;;;;;4.07;2.73;;;13.90;99.90;;;;;;5085772;28;20527;-69
2021/07/14 00:58:24;;;;;;;7.47;3.20;;;13.90;99.90;;;;;;5085702;28;20468;-69
2021/07/14 01:00:51;;;;;;;3.20;2.90;;;13.90;99.90;;;;;;5084976;28;20488;-69
2021/07/14 01:03:23;;;;;;;3.50;3.00;;;13.90;99.90;;;;;;5085559;28;20457;-70
2021/07/14 01:05:53;;;;;;;4.93;3.00;;;14.00;99.90;;;;;;5085501;28;20945;-70
2021/07/14 01:08:28;;;;;;;3.40;3.10;;;14.00;99.90;;;;;;5085374;28;20474;-69
2021/07/14 01:11:00;;;;;;;3.33;2.83;;;14.00;99.90;;;;;;5085045;28;20489;-69
2021/07/14 01:13:36;;;;;;;3.20;2.90;;;13.90;99.90;;;;;;5077127;28;20524;-68
2021/07/14 01:16:06;;;;;;;3.23;2.93;;;13.90;99.90;;;;;;5072087;28;20496;-69
2021/07/14 01:18:37;;;;;;;4.07;3.40;;;13.90;99.90;;;;;;5071538;28;20465;-69
2021/07/14 01:21:08;;;;;;;3.63;3.33;;;13.90;99.90;;;;;;5071343;28;20516;-68
2021/07/14 01:23:46;;;;;;;3.47;3.17;;;13.80;99.90;;;;;;5071332;28;20478;-69
2021/07/14 01:26:23;;;;;;;3.90;3.30;;;13.80;99.90;;;;;;5071814;28;20458;-69
2021/07/14 01:28:55;;;;;;;3.20;2.97;;;13.80;99.90;;;;;;5071566;28;20549;-69
2021/07/14 01:31:23;;;;;;;7.90;3.50;;;13.70;99.90;;;;;;5071191;28;21001;-69
2021/07/14 01:33:55;;;;;;;2.63;2.43;;;13.70;99.90;;;;;;5071381;28;20908;-69
2021/07/14 01:36:24;;;;;;;3.40;3.10;;;13.70;99.90;;;;;;5071505;28;20459;-69
2021/07/14 01:38:51;;;;;;;4.20;3.13;;;13.70;99.90;;;;;;5071594;28;20463;-69
2021/07/14 01:41:20;;;;;;;3.20;2.90;;;13.70;99.90;;;;;;5070737;28;20465;-69
2021/07/14 01:43:49;;;;;;;3.10;2.90;;;13.70;99.90;;;;;;5071390;28;20482;-70
2021/07/14 01:46:19;;;;;;;4.17;3.00;;;13.70;99.90;;;;;;5071310;28;20545;-69
2021/07/14 01:48:47;;;;;;;4.00;2.80;;;13.70;99.90;;;;;;5071271;28;20875;-69
2021/07/14 01:51:15;;;;;;;4.97;2.87;;;13.70;99.90;;;;;;5070789;28;20459;-69
2021/07/14 01:53:44;;;;;;;3.73;3.17;;;13.70;99.90;;;;;;5071012;28;20489;-70
2021/07/14 01:56:12;;;;;;;4.40;3.30;;;13.70;99.90;;;;;;5071275;28;20466;-70
2021/07/14 01:58:41;;;;;;;3.00;2.70;;;13.70;99.90;;;;;;5070735;28;20953;-70
2021/07/14 02:01:10;;;;;;;3.20;2.90;;;13.70;99.90;;;;;;5070534;28;20463;-70
2021/07/14 02:03:43;;;;;;;15.70;3.27;;;13.70;99.90;;;;;;5070600;28;20494;-70
2021/07/14 02:06:11;;;;;;;2.77;2.53;;;13.70;99.90;;;;;;5071018;28;20574;-70
2021/07/14 02:08:40;;;;;;;3.40;3.10;;;13.70;99.90;;;;;;5070774;28;20470;-70
2021/07/14 02:11:07;;;;;;;4.40;3.10;;;13.70;99.90;;;;;;5070537;28;20458;-70
2021/07/14 02:13:36;;;;;;;4.67;4.23;;;13.70;99.90;;;;;;5070369;28;20482;-69
2021/07/14 02:16:05;;;;;;;4.53;2.63;;;13.70;99.90;;;;;;5070802;28;20512;-70
2021/07/14 02:18:42;;;;;;;3.07;2.70;;;13.70;99.90;;;;;;5070635;28;20556;-70
2021/07/14 02:21:09;;;;;;;4.40;3.50;;;13.70;99.90;;;;;;5069978;28;20515;-69
2021/07/14 02:23:37;;;;;;;4.17;2.87;;;13.70;99.90;;;;;;5070154;28;20850;-69
2021/07/14 02:26:05;;;;;;;3.13;2.90;;;13.70;99.90;;;;;;5069680;28;21033;-70
2021/07/14 02:28:32;;;;;;;3.43;3.10;;;13.70;99.90;;;;;;5070460;28;20463;-70
2021/07/14 02:30:59;;;;;;;3.97;2.97;;;13.70;99.90;;;;;;5069870;28;20463;-69
2021/07/14 02:33:26;;;;;;;4.30;3.03;;;13.70;99.90;;;;;;5070058;28;20462;-69
2021/07/14 02:35:59;;;;;;;4.43;3.13;;;13.60;99.90;;;;;;5070438;28;20471;-69
2021/07/14 02:38:29;;;;;;;3.50;2.87;;;13.60;99.90;;;;;;5070119;28;20458;-69
2021/07/14 02:41:03;;;;;;;6.13;3.07;;;13.70;99.90;;;;;;5069589;28;20474;-68
2021/07/14 02:43:31;;;;;;;4.90;3.13;;;13.70;99.90;;;;;;5069366;28;20499;-70
2021/07/14 02:46:01;;;;;;;3.70;3.20;;;13.70;99.90;;;;;;5070055;28;20458;-69
2021/07/14 02:48:29;;;;;;;5.53;3.93;;;13.70;99.90;;;;;;5069496;28;20954;-70
2021/07/14 02:50:59;;;;;;;3.23;2.87;;;13.60;99.90;;;;;;5069396;28;20462;-69
2021/07/14 02:53:29;;;;;;;3.33;3.10;;;13.70;99.90;;;;;;5069454;28;20523;-69
2021/07/14 02:56:00;;;;;;;4.17;3.43;;;13.70;99.90;;;;;;5069945;28;20973;-69
2021/07/14 02:58:30;;;;;;;5.50;3.70;;;13.70;99.90;;;;;;5069271;28;20484;-69
2021/07/14 03:00:58;;;;;;;3.93;3.53;;;13.60;99.90;;;;;;5069236;28;20806;-70
2021/07/14 03:03:25;;;;;;;5.63;4.13;;;13.60;99.90;;;;;;5069118;28;20483;-69
2021/07/14 03:05:55;;;;;;;6.50;3.53;;;13.60;99.90;;;;;;5069268;28;20508;-69
2021/07/14 03:08:26;;;;;;;4.70;3.17;;;13.60;99.90;;;;;;5069223;28;20490;-68
2021/07/14 03:10:55;;;;;;;5.90;3.53;;;13.60;99.90;;;;;;5068787;28;20458;-69
2021/07/14 03:13:24;;;;;;;4.73;3.40;;;13.60;99.90;;;;;;5068881;28;20495;-68
2021/07/14 03:15:50;;;;;;;3.80;3.40;;;13.50;99.90;;;;;;5069475;28;20459;-70
2021/07/14 03:18:20;;;;;;;5.10;3.50;;;13.50;99.90;;;;;;5069217;28;20455;-69
2021/07/14 03:20:48;;;;;;;3.50;3.20;;;13.50;99.90;;;;;;5068716;28;20458;-69
2021/07/14 03:23:15;;;;;;;4.50;3.20;;;13.50;99.90;;;;;;5068823;28;21078;-70
2021/07/14 03:25:44;;;;;;;3.50;3.17;;;13.50;99.90;;;;;;5068900;28;20466;-69
2021/07/14 03:28:11;;;;;;;3.33;3.03;;;13.50;99.90;;;;;;5069189;28;20536;-69
2021/07/14 03:30:38;;;;;;;3.27;2.97;;;13.50;99.90;;;;;;5068178;28;20496;-69
2021/07/14 03:33:05;;;;;;;4.70;3.20;;;13.50;99.90;;;;;;5068878;28;20455;-69
2021/07/14 03:35:32;;;;;;;4.70;3.30;;;13.50;99.90;;;;;;5068663;28;20493;-68
2021/07/14 03:38:02;;;;;;;6.80;3.10;;;13.50;99.90;;;;;;5074734;28;20463;-69
2021/07/14 03:40:30;;;;;;;3.40;3.10;;;13.50;99.90;;;;;;5078493;28;20457;-69
2021/07/14 03:42:59;;;;;;;5.33;3.70;;;13.50;99.90;;;;;;5080027;28;20489;-69
2021/07/14 03:45:28;;;;;;;3.43;3.13;;;13.50;99.90;;;;;;5077274;28;20534;-69
2021/07/14 03:47:56;;;;;;;4.30;3.50;;;13.50;99.90;;;;;;5078830;28;20466;-69
2021/07/14 03:50:24;;;;;;;2.90;2.70;;;13.60;99.90;;;;;;5077035;28;20987;-68
2021/07/14 03:52:51;;;;;;;5.30;3.40;;;13.60;99.90;;;;;;5079508;28;20195;-68
2021/07/14 03:55:19;;;;;;;3.70;3.27;;;13.60;99.90;;;;;;5079293;28;20488;-68
2021/07/14 03:57:47;;;;;;;4.80;3.47;;;13.60;99.90;;;;;;5075370;28;20465;-68
2021/07/14 04:00:16;;;;;;;4.20;3.07;;;13.60;99.90;;;;;;5073872;28;20477;-68
2021/07/14 04:02:45;;;;;;;3.20;2.90;;;13.60;99.90;;;;;;5080564;28;20481;-68
2021/07/14 04:05:14;;;;;;;3.80;3.10;;;13.60;99.90;;;;;;5088503;28;20510;-67
2021/07/14 04:07:48;;;;;;;3.70;3.20;;;13.70;99.90;;;;;;5088408;28;20489;-68
2021/07/14 04:10:15;;;;;;;3.30;2.50;;;13.60;99.90;;;;;;5087715;28;20462;-68
2021/07/14 04:12:43;;;;;;;4.57;3.30;;;13.60;99.90;;;;;;5087237;28;20458;-68
2021/07/14 04:15:10;;;;;;;3.53;3.00;;;13.60;99.90;;;;;;5088343;28;20478;-68
2021/07/14 04:17:38;;;;;;;4.30;3.20;;;13.60;99.90;;;;;;5088672;28;20503;-69
2021/07/14 04:20:06;;;;;;;3.20;2.93;;;13.60;99.90;;;;;;5071585;28;20473;-69
2021/07/14 04:22:34;;;;;;;4.33;3.50;;;13.60;99.90;;;;;;5085462;28;21023;-69
2021/07/14 04:25:01;;;;;;;3.83;3.20;;;13.60;99.90;;;;;;5092219;28;20474;-69
2021/07/14 04:27:28;;;;;;;5.23;2.80;;;13.60;99.90;;;;;;5088286;28;20465;-69
2021/07/14 04:29:54;;;;;;;3.43;3.13;;;13.60;99.90;;;;;;5088107;28;20468;-69
2021/07/14 04:32:21;;;;;;;3.30;3.00;;;13.60;99.90;;;;;;5087908;28;20449;-69
2021/07/14 04:34:49;;;;;;;3.90;3.10;;;13.60;99.90;;;;;;5088095;28;20488;-69
2021/07/14 04:37:16;;;;;;;6.07;3.47;;;13.60;99.90;;;;;;5088064;28;20457;-69
2021/07/14 04:39:43;;;;;;;3.60;3.30;;;13.60;99.90;;;;;;5087440;28;20468;-69
2021/07/14 04:42:10;;;;;;;5.53;2.83;;;13.60;99.90;;;;;;5087794;28;20952;-69
2021/07/14 04:44:38;;;;;;;5.33;3.27;;;13.60;99.90;;;;;;5087819;28;20484;-69
2021/07/14 04:47:05;;;;;;;7.20;3.03;;;13.60;99.90;;;;;;5087962;28;20461;-69
2021/07/14 04:49:32;;;;;;;3.40;2.97;;;13.70;99.90;;;;;;5090737;28;20462;-69
2021/07/14 04:52:00;;;;;;;4.27;3.30;;;13.70;99.90;;;;;;5092260;28;20465;-69
2021/07/14 04:54:28;;;;;;;4.30;2.50;;;13.70;99.90;;;;;;5091465;28;20484;-69
2021/07/14 04:56:54;;;;;;;6.13;3.43;;;13.70;99.90;;;;;;5091948;28;20453;-69
2021/07/14 04:59:21;;;;;;;7.30;3.40;;;13.70;99.90;;;;;;5091356;28;20466;-69
2021/07/14 05:01:48;;;;;;;3.27;2.97;;;13.70;99.90;;;;;;5106689;28;20465;-69
2021/07/14 05:04:14;;;;;;;4.70;3.73;;;13.70;99.90;;;;;;5111683;28;20906;-69
2021/07/14 05:06:41;;;;;;;4.50;3.00;;;13.70;99.90;;;;;;5111885;28;20467;-69
2021/07/14 05:09:10;;;;;;;3.50;3.20;;;13.70;99.90;;;;;;5111638;28;21150;-68
2021/07/14 05:11:36;;;;;;;3.50;2.97;;;13.80;99.90;;;;;;5111466;28;20840;-68
2021/07/14 05:14:04;;;;;;;4.60;3.30;;;13.80;99.90;;;;;;5111691;28;20472;-69
2021/07/14 05:16:30;;;;;;;4.70;2.90;;;13.80;99.90;;;;;;5111597;28;20460;-69
2021/07/14 05:18:57;;;;;;;7.67;3.40;;;13.80;99.90;;;;;;5111733;28;20464;-69
2021/07/14 05:21:24;;;;;;;4.47;2.87;;;13.80;99.90;;;;;;5111055;28;20522;-70
2021/07/14 05:23:51;;;;;;;3.03;2.80;;;13.80;99.90;;;;;;5111602;28;20876;-69
2021/07/14 05:26:19;;;;;;;3.80;3.03;;;13.80;99.90;;;;;;5111138;28;20461;-69
2021/07/14 05:28:46;;;;;;;3.23;2.93;;;13.80;99.90;;;;;;5111751;28;20457;-69
2021/07/14 05:31:13;;;;;;;2.90;2.70;;;13.80;99.90;;;;;;5111562;28;20543;-70
2021/07/14 05:33:39;;;;;;;4.90;2.93;;;13.80;99.90;;;;;;5110820;28;20992;-69
2021/07/14 05:36:06;;;;;;;3.80;3.30;;;13.80;99.90;;;;;;5111860;28;20464;-70
2021/07/14 05:38:33;;;;;;;3.60;3.30;;;13.80;99.90;;;;;;5111024;28;20460;-70
2021/07/14 05:41:00;;;;;;;5.20;3.20;;;13.80;99.90;;;;;;5110852;28;20471;-69
2021/07/14 05:43:28;;;;;;;5.37;3.90;;;13.80;99.90;;;;;;5107528;28;20645;-70
2021/07/14 05:45:55;;;;;;;3.53;3.23;;;13.80;99.90;;;;;;5091196;28;20518;-69
2021/07/14 05:48:22;;;;;;;3.07;2.87;;;13.90;99.90;;;;;;5086652;28;20467;-69
2021/07/14 05:50:49;;;;;;;3.13;2.80;;;13.90;99.90;;;;;;5086828;28;20454;-69
2021/07/14 05:53:16;;;;;;;3.00;2.80;;;13.90;99.90;;;;;;5090765;28;20878;-69
2021/07/14 05:55:42;;;;;;;3.30;3.00;;;13.90;99.90;;;;;;5090425;28;20466;-69
2021/07/14 05:58:11;;;;;;;3.70;2.97;;;13.90;99.90;;;;;;5091010;28;20464;-69
2021/07/14 06:00:39;;;;;;;5.30;3.80;;;13.90;99.90;;;;;;5089540;28;20457;-69
2021/07/14 06:03:06;;;;;;;3.57;2.70;;;13.90;99.90;;;;;;5090249;28;20542;-69
2021/07/14 06:05:33;;;;;;;3.23;2.90;;;13.90;99.90;;;;;;5090104;28;20870;-69
2021/07/14 06:08:00;;;;;;;4.13;3.37;;;13.90;99.90;;;;;;5090606;28;20860;-68
2021/07/14 06:10:27;;;;;;;3.20;2.90;;;13.90;99.90;;;;;;5089590;28;20465;-69
2021/07/14 06:12:56;;;;;;;4.37;3.37;;;14.00;99.90;;;;;;5090087;28;20454;-70
2021/07/14 06:15:24;;;;;;;3.47;3.17;;;14.00;99.90;;;;;;5090088;28;20477;-69
2021/07/14 06:17:52;;;;;;;3.63;3.13;;;14.00;99.90;;;;;;5090123;28;20465;-69
2021/07/14 06:20:19;;;;;;;3.50;3.20;;;14.00;99.90;;;;;;5089836;28;20578;-69
2021/07/14 06:22:46;;;;;;;4.40;3.40;;;14.10;99.90;;;;;;5089828;28;21003;-69
2021/07/14 06:25:13;;;;;;;4.97;3.20;;;14.10;99.90;;;;;;5090222;28;20559;-69
2021/07/14 06:27:40;;;;;;;5.20;2.97;;;14.10;99.90;;;;;;5089430;28;20461;-69
2021/07/14 06:30:09;;;;;;;3.83;3.17;;;14.10;99.90;;;;;;5089475;28;20461;-69
2021/07/14 06:32:36;;;;;;;4.03;3.63;;;14.10;99.90;;;;;;5089561;28;20469;-69
2021/07/14 06:35:04;;;;;;;3.53;3.23;;;14.00;99.90;;;;;;5089877;28;20478;-69
2021/07/14 06:37:31;;;;;;;4.07;2.97;;;14.00;99.90;;;;;;5089552;28;20967;-69
2021/07/14 06:39:58;;;;;;;4.20;3.10;;;14.10;99.90;;;;;;5089366;28;20472;-69
2021/07/14 06:42:25;;;;;;;3.40;3.10;;;14.10;99.90;;;;;;5089024;28;20489;-69
2021/07/14 06:44:51;;;;;;;4.03;3.10;;;14.20;99.90;;;;;;5089134;28;20485;-69
2021/07/14 06:47:18;;;;;;;3.50;3.20;;;14.20;99.90;;;;;;5089902;28;20458;-69
2021/07/14 06:49:45;;;;;;;3.60;3.30;;;14.20;99.90;;;;;;5089176;28;20465;-69
2021/07/14 06:52:13;;;;;;;3.73;2.93;;;14.30;99.90;;;;;;5089668;28;20825;-69
2021/07/14 06:54:40;;;;;;;3.13;2.83;;;14.40;99.90;;;;;;5089110;28;20920;-69
2021/07/14 06:57:07;;;;;;;3.40;3.10;;;14.40;99.90;;;;;;5089500;28;20454;-69
2021/07/14 06:59:34;;;;;;;4.03;3.30;;;14.40;99.90;;;;;;5088660;28;20454;-69
2021/07/14 07:02:02;;;;;;;5.33;3.17;;;14.50;99.90;;;;;;5105627;28;20906;-69
2021/07/14 07:04:29;;;;;;;3.33;3.03;;;14.50;99.90;;;;;;5109184;28;20488;-69
2021/07/14 07:06:56;;;;;;;3.33;2.90;;;14.50;99.90;;;;;;5109391;28;21308;-69
2021/07/14 07:09:24;;;;;;;3.27;3.00;;;14.60;99.90;;;;;;5109373;28;20468;-69
2021/07/14 07:11:51;;;;;;;3.37;3.07;;;14.60;99.90;;;;;;5108937;28;20453;-70
2021/07/14 07:14:18;;;;;;;4.60;2.90;;;14.60;99.90;;;;;;5109117;28;20480;-69
2021/07/14 07:16:45;;;;;;;3.90;3.13;;;14.60;99.90;;;;;;5109437;28;20471;-69
2021/07/14 07:19:12;;;;;;;3.67;3.20;;;14.70;99.90;;;;;;5108857;28;20472;-68
2021/07/14 07:21:39;;;;;;;2.93;2.60;;;14.70;99.90;;;;;;5108269;28;20593;-69
2021/07/14 07:24:06;;;;;;;3.60;3.00;;;14.70;99.90;;;;;;5108966;28;20492;-69
2021/07/14 07:26:34;;;;;;;2.60;2.40;;;14.70;99.90;;;;;;5109024;28;20847;-69
2021/07/14 07:29:04;;;;;;;3.43;3.13;;;14.80;99.90;;;;;;5108945;28;20452;-69
2021/07/14 07:31:32;;;;;;;4.00;3.10;;;14.80;99.90;;;;;;5108935;28;20460;-69
2021/07/14 07:33:58;;;;;;;3.40;3.10;;;14.90;99.90;;;;;;5109026;28;20472;-69
2021/07/14 07:36:25;;;;;;;3.23;3.00;;;14.90;99.90;;;;;;5109133;28;20460;-70
2021/07/14 07:38:52;;;;;;;3.57;3.00;;;14.90;99.90;;;;;;5109225;28;20474;-69
2021/07/14 07:41:20;;;;;;;4.20;3.73;;;14.90;99.90;;;;;;5108439;28;20456;-69
2021/07/14 07:43:48;;;;;;;4.73;2.70;;;15.00;99.90;;;;;;5108490;28;20484;-68
2021/07/14 07:46:15;;;;;;;4.57;3.00;;;15.00;99.90;;;;;;5108799;28;20468;-70
2021/07/14 07:48:42;;;;;;;3.10;2.70;;;15.00;99.90;;;;;;5108601;28;20836;-69
2021/07/14 07:51:10;;;;;;;2.80;2.60;;;15.00;99.90;;;;;;5108532;28;20464;-69
2021/07/14 07:53:37;;;;;;;3.07;2.80;;;15.10;99.90;;;;;;5108707;28;20508;-69
2021/07/14 07:56:05;;;;;;;7.93;3.30;;;15.10;99.90;;;;;;5108743;28;20463;-69
2021/07/14 07:58:32;;;;;;;3.23;2.60;;;15.10;99.90;;;;;;5108689;28;20461;-68
2021/07/14 08:01:01;;;;;;;4.47;3.30;;;15.10;99.90;;;;;;5108372;28;20469;-69
2021/07/14 08:03:27;;;;;;;3.00;2.70;;;15.10;99.90;;;;;;5108163;28;20836;-69
2021/07/14 08:05:54;;;;;;;4.50;3.10;;;15.10;99.90;;;;;;5108844;28;20456;-69
2021/07/14 08:08:21;;;;;;;3.33;3.00;;;15.20;99.90;;;;;;5094302;28;20465;-69
2021/07/14 08:10:48;;;;;;;3.13;2.90;;;15.10;99.90;;;;;;5087893;28;20457;-69
2021/07/14 08:13:17;;;;;;;3.23;3.03;;;15.10;99.90;;;;;;5087993;28;20469;-70
2021/07/14 08:15:45;;;;;;;2.70;2.47;;;15.20;99.90;;;;;;5088220;28;20515;-70
2021/07/14 08:18:13;;;;;;;4.83;3.00;;;15.20;99.90;;;;;;5088324;28;20838;-69
2021/07/14 08:20:39;;;;;;;3.30;3.00;;;15.20;99.90;;;;;;5087679;28;20465;-69
2021/07/14 08:23:06;;;;;;;3.50;2.57;;;15.20;99.90;;;;;;5089243;28;20864;-69
2021/07/14 08:25:33;;;;;;;4.10;3.47;;;15.20;99.90;;;;;;5091855;28;20489;-69
2021/07/14 08:27:59;;;;;;;3.13;2.93;;;15.30;99.90;;;;;;5092347;28;20485;-69
2021/07/14 08:30:26;;;;;;;3.20;2.90;;;15.30;99.90;;;;;;5091056;28;20457;-69
2021/07/14 08:32:53;;;;;;;4.00;3.50;;;15.30;99.90;;;;;;5092266;28;20468;-69
2021/07/14 08:35:21;;;;;;;3.50;3.20;;;15.30;99.90;;;;;;5092021;28;20477;-69
2021/07/14 08:37:48;;;;;;;3.30;3.00;;;15.30;99.90;;;;;;5092560;28;20468;-69
2021/07/14 08:40:15;;;;;;;3.00;2.70;;;15.40;99.90;;;;;;5091596;28;20460;-69
2021/07/14 08:42:43;;;;;;;3.40;3.10;;;15.40;99.90;;;;;;5091462;28;20453;-69
2021/07/14 08:45:15;;;;;;;4.90;2.77;;;15.40;99.90;;;;;;5091934;28;20489;-69
2021/07/14 08:47:45;;;;;;;3.40;3.10;;;15.50;99.90;;;;;;5091506;28;20461;-69
2021/07/14 08:50:12;;;;;;;3.17;2.80;;;15.50;99.90;;;;;;5091473;28;20826;-70
2021/07/14 08:52:42;;;;;;;5.37;3.30;;;15.50;99.90;;;;;;5091451;28;20964;-69
2021/07/14 08:55:11;;;;;;;4.37;3.23;;;15.60;99.90;;;;;;5092093;28;20477;-69
2021/07/14 08:57:38;;;;;;;3.57;3.27;;;15.60;99.90;;;;;;5091424;28;20493;-68
2021/07/14 09:00:08;;;;;;;3.73;3.40;;;15.60;99.90;;;;;;5091440;28;20457;-69
2021/07/14 09:02:38;;;;;;;5.50;3.47;;;15.70;99.90;;;;;;5111765;28;20475;-69
2021/07/14 09:05:06;;;;;;;5.50;3.40;;;15.70;99.90;;;;;;5111723;28;20495;-69
2021/07/14 09:07:33;;;;;;;4.30;3.10;;;15.70;99.90;;;;;;5111832;28;20472;-69
2021/07/14 09:10:01;;;;;;;6.07;3.03;;;15.70;99.90;;;;;;5111347;28;20460;-69
2021/07/14 09:12:37;;;;;;;4.30;3.20;;;15.80;99.90;;;;;;5111633;28;20929;-73
2021/07/14 09:15:07;;;;;;;3.37;2.87;;;15.70;99.90;;;;;;5111813;28;20540;-73
2021/07/14 09:17:34;;;;;;;3.57;3.27;;;15.80;99.90;;;;;;5111751;28;20982;-72
2021/07/14 09:20:04;;;;;;;3.13;2.80;;;15.80;99.90;;;;;;5111560;28;20867;-72
2021/07/14 09:22:32;;;;;;;3.20;3.00;;;15.80;99.90;;;;;;5112298;28;20463;-73
2021/07/14 09:25:07;;;;;;;3.47;3.17;;;15.90;99.90;;;;;;5095308;28;20498;-72
2021/07/14 09:27:36;;;;;;;5.37;3.47;;;15.90;99.90;;;;;;5091553;28;20460;-72
2021/07/14 09:30:15;;;;;;;4.50;3.20;;;15.90;99.90;;;;;;5091377;28;20468;-72
2021/07/14 09:32:51;;;;;;;6.07;3.40;;;16.00;99.90;;;;;;5091223;28;20462;-72
2021/07/14 09:35:29;;;;;;;3.90;3.50;;;16.00;99.90;;;;;;5089690;28;20477;-72
2021/07/14 09:37:58;;;;;;;3.60;3.30;;;16.00;99.90;;;;;;5071313;28;20450;-73
2021/07/14 09:40:27;;;;;;;3.73;3.43;;;16.10;99.90;;;;;;5071586;28;20462;-72
2021/07/14 09:42:58;;;;;;;3.77;3.47;;;16.10;99.90;;;;;;5071390;28;20462;-72
2021/07/14 09:45:42;;;;;;;4.90;3.70;;;16.20;99.90;;;;;;5071281;28;20493;-73
2021/07/14 09:48:11;;;;;;;4.53;3.40;;;16.20;99.90;;;;;;5070943;28;20462;-73
2021/07/14 09:50:39;;;;;;;3.50;3.20;;;16.20;99.90;;;;;;5070564;28;21346;-73
2021/07/14 09:53:08;;;;;;;5.70;3.57;;;16.30;99.90;;;;;;5084516;28;20461;-73
2021/07/14 09:55:37;;;;;;;3.37;3.17;;;16.30;99.90;;;;;;5091038;28;21018;-72
2021/07/14 09:58:09;;;;;;;3.50;3.20;;;16.30;99.90;;;;;;5091171;28;20465;-73
2021/07/14 10:00:49;;;;;;;3.67;3.37;;;16.30;99.90;;;;;;5090075;28;20518;-72
2021/07/14 10:03:23;;;;;;;3.93;3.63;;;16.40;99.90;;;;;;5091454;28;20862;-72
2021/07/14 10:05:50;;;;;;;5.20;3.43;;;16.50;99.90;;;;;;5090726;28;20485;-72
2021/07/14 10:08:22;;;;;;;4.80;3.80;;;16.60;99.90;;;;;;5091257;28;20461;-72
2021/07/14 10:10:51;;;;;;;3.37;2.87;;;16.70;99.90;;;;;;5090246;28;20879;-72
2021/07/14 10:13:21;;;;;;;3.67;3.37;;;16.80;99.90;;;;;;5090806;28;20458;-72
2021/07/14 10:16:00;;;;;;;3.97;3.53;;;16.90;99.90;;;;;;5090842;28;20476;-72
2021/07/14 10:18:27;;;;;;;5.43;3.10;;;16.90;99.90;;;;;;5090627;28;20514;-72
2021/07/14 10:20:54;;;;;;;3.27;2.97;;;17.00;99.90;;;;;;5090126;28;20465;-73
2021/07/14 10:23:23;;;;;;;3.20;2.90;;;17.10;99.90;;;;;;5090370;28;20469;-72
2021/07/14 10:25:51;;;;;;;3.27;2.87;;;17.10;99.90;;;;;;5091452;28;20983;-72
2021/07/14 10:28:21;;;;;;;3.40;3.10;;;17.20;99.90;;;;;;5090859;28;20465;-72
2021/07/14 10:30:50;;;;;;;3.33;3.03;;;17.40;99.90;;;;;;5089978;28;20885;-73
2021/07/14 10:33:19;;;;;;;3.30;3.00;;;17.50;99.90;;;;;;5089858;28;20467;-72
2021/07/14 10:35:47;;;;;;;3.43;3.13;;;17.70;99.90;;;;;;5090089;28;20829;-73
2021/07/14 10:38:15;;;;;;;3.10;2.70;;;17.80;99.90;;;;;;5089296;28;20460;-72
2021/07/14 10:40:44;;;;;;;2.97;2.77;;;18.00;99.90;;;;;;5070793;28;20474;-72
2021/07/14 10:43:15;;;;;;;4.70;2.57;;;18.20;99.90;;;;;;5069473;28;20536;-72
2021/07/14 10:45:42;;;;;;;3.27;2.70;;;18.30;99.90;;;;;;5068939;28;20515;-72
2021/07/14 10:48:09;;;;;;;3.10;2.40;;;18.40;99.90;;;;;;5069657;28;20465;-72
2021/07/14 10:50:36;;;;;;;2.43;2.00;;;18.50;99.90;;;;;;5074041;28;20466;-72
2021/07/14 10:53:05;;;;;;;2.20;2.00;;;18.40;99.90;;;;;;5069236;28;20851;-72
2021/07/14 10:55:32;;;;;;;2.27;2.07;;;18.40;99.90;;;;;;5070802;28;20474;-72
2021/07/14 10:57:59;;;;;;;2.37;2.17;;;18.50;99.90;;;;;;5080285;28;20458;-72
2021/07/14 11:00:27;;;;;;;1.90;1.70;;;18.50;99.90;;;;;;5078102;28;20473;-71
2021/07/14 11:02:55;;;;;;;2.43;1.87;;;18.50;99.90;;;;;;5071126;28;20886;-71
2021/07/14 11:05:34;;;;;;;2.10;1.90;;;18.60;99.90;;;;;;5071905;28;20494;-70
2021/07/14 11:08:01;;;;;;;1.87;1.77;;;18.70;99.90;;;;;;5074989;28;20453;-72
2021/07/14 11:10:31;;;;;;;2.80;2.03;;;18.80;99.90;;;;;;5076843;28;20535;-72
2021/07/14 11:12:59;;;;;;;2.03;1.80;;;18.90;99.90;;;;;;5079911;28;20450;-72
2021/07/14 11:15:32;;;;;;;2.10;1.90;;;19.00;99.90;;;;;;5078817;28;20613;-72
2021/07/14 11:18:00;;;;;;;2.53;2.33;;;19.20;99.90;;;;;;5079619;28;20457;-72
2021/07/14 11:20:39;;;;;;;2.20;2.00;;;19.30;99.90;;;;;;5074645;28;20826;-72
2021/07/14 11:23:21;;;;;;;2.00;1.90;;;19.60;99.90;;;;;;5074810;28;20457;-71
2021/07/14 11:25:49;;;;;;;2.00;1.50;;;19.80;99.90;;;;;;5076880;28;20517;-72
2021/07/14 11:28:16;;;;;;;2.00;1.90;;;20.00;99.90;;;;;;5079511;28;20457;-72
2021/07/14 11:30:46;;;;;;;1.80;1.70;;;20.00;99.90;;;;;;5077338;28;20458;-73
2021/07/14 11:33:27;;;;;;;1.70;1.60;;;20.00;99.90;;;;;;5077572;28;20957;-73
2021/07/14 11:35:57;;;;;;;3.73;1.90;;;20.00;99.90;;;;;;5079363;28;20455;-73
2021/07/14 11:38:26;;;;;;;2.00;1.80;;;20.00;99.90;;;;;;5068263;28;20471;-73
2021/07/14 11:40:55;;;;;;;1.83;1.60;;;20.10;99.90;;;;;;5067659;28;20458;-73
2021/07/14 11:43:25;;;;;;;1.50;1.40;;;20.00;99.90;;;;;;5068002;28;20458;-72
2021/07/14 11:45:55;;;;;;;1.70;1.60;;;19.90;99.90;;;;;;5067882;28;20486;-71
2021/07/14 11:48:34;;;;;;;1.57;1.47;;;19.80;99.90;;;;;;5071885;28;20457;-72
2021/07/14 11:51:03;;;;;;;2.00;1.80;;;19.80;99.90;;;;;;5076682;28;20459;-72
2021/07/14 11:53:39;;;;;;;1.40;1.20;;;19.80;99.90;;;;;;5077343;28;20458;-72
2021/07/14 11:56:11;;;;;;;1.60;1.50;;;19.80;99.90;;;;;;5077867;28;20469;-71
2021/07/14 11:59:12;;;;;;;2.77;1.63;;;19.60;99.90;;;;;;5076634;28;20918;-72
2021/07/14 12:01:55;;;;;;;2.93;1.87;;;19.50;99.90;;;;;;5036053;28;20474;-73
2021/07/14 12:04:26;;;;;;;1.60;1.50;;;19.60;99.90;;;;;;5064576;28;20573;-72
2021/07/14 12:07:00;;;;;;;2.13;1.70;;;19.70;99.90;;;;;;5077529;28;20462;-72
2021/07/14 12:09:33;;;;;;;1.83;1.50;;;19.70;99.90;;;;;;5087355;28;20836;-72
2021/07/14 12:12:02;;;;;;;1.70;1.60;;;19.80;99.90;;;;;;5089486;28;20488;-73
2021/07/14 12:14:30;;;;;;;3.33;1.50;;;19.80;99.90;;;;;;5087439;28;20490;-72
2021/07/14 12:17:00;;;;;;;2.77;1.80;;;19.90;99.90;;;;;;5088178;28;20469;-72
2021/07/14 12:19:29;;;;;;;4.90;1.83;;;19.90;99.90;;;;;;5088230;28;21257;-73
2021/07/14 12:21:56;;;;;;;1.70;1.53;;;19.90;99.90;;;;;;5089268;28;20453;-72
2021/07/14 12:24:32;;;;;;;2.17;1.80;;;19.80;99.90;;;;;;5088982;28;20494;-72
2021/07/14 12:27:09;;;;;;;1.77;1.67;;;19.80;99.90;;;;;;5089358;28;20535;-72
2021/07/14 12:29:36;;;;;;;2.57;1.77;;;19.90;99.90;;;;;;5088429;28;20519;-72
2021/07/14 12:32:05;;;;;;;1.57;1.47;;;19.90;99.90;;;;;;5088681;28;20464;-72
2021/07/14 12:34:33;;;;;;;1.47;1.37;;;19.90;99.90;;;;;;5088677;28;20485;-72
2021/07/14 12:37:01;;;;;;;1.90;1.43;;;19.90;99.90;;;;;;5088818;28;20867;-72
2021/07/14 12:39:30;;;;;;;2.43;1.50;;;19.90;99.90;;;;;;5088190;28;20473;-71
2021/07/14 12:41:59;;;;;;;2.17;1.97;;;20.00;99.90;;;;;;5088913;28;20457;-72
2021/07/14 12:44:27;;;;;;;1.60;1.50;;;20.00;99.90;;;;;;5088158;28;20860;-72
2021/07/14 12:46:54;;;;;;;2.03;1.83;;;20.00;99.90;;;;;;5075698;28;20486;-72
2021/07/14 12:49:23;;;;;;;1.77;1.67;;;20.00;99.90;;;;;;5066305;28;20459;-71
2021/07/14 12:52:07;;;;;;;2.10;1.50;;;20.00;99.90;;;;;;5067623;28;20516;-72
2021/07/14 12:54:35;;;;;;;1.63;1.53;;;20.00;99.90;;;;;;5065935;28;20486;-72
2021/07/14 12:57:07;;;;;;;7.07;1.60;;;19.90;99.90;;;;;;5073013;28;20472;-71
2021/07/14 12:59:34;;;;;;;1.83;1.70;;;19.90;99.90;;;;;;5072574;28;20538;-72
2021/07/14 13:02:01;;;;;;;1.93;1.77;;;19.90;99.90;;;;;;5072132;28;20473;-72
2021/07/14 13:04:29;;;;;;;4.83;2.00;;;20.00;99.90;;;;;;5075843;28;20497;-71
2021/07/14 13:06:56;;;;;;;1.43;1.33;;;20.00;99.90;;;;;;5074089;28;20484;-72